Archival Weather

Republic

Farmingdale, New York (KFRG)

Report from: Saturday, January 27, 2024 4:53 AM EST
Current time: Monday, June 17, 2024 4:14 AM EDT

Current weather – Weather history – Daily summaries
Weather forecast

Present weatherMist
Temperature5.0°C (41.0°F)
Wind chill3.9°C (39.0°F)
Dew point4.4°C (39.9°F)
Winds 3 kts (1.5 m/s, 3.5 mph) North-Northeast (30°)
Visibility1.8 mi. (2.8 km)
Clouds Ceiling: Broken clouds 400 ft. (122 m)
Overcast 2,100 ft. (640 m)
Altimeter30.12 in.Hg (1020 mB)
Relative humidity96 %
Density altitude-1,319 ft. (-402 m)
Sea-level pressure102.0 kPa (1020 mB, 30.12 in.Hg)
Remarks Fully automated report
Automated weather observing station without precipitation discriminator
Surface visibility ceiling
Flight conditions Low Instrument Meteorological Conditions
Raw dataKFRG 270953Z AUTO 03003KT 1 3/4SM BR BKN004 OVC021 05/04 A3012 RMK AO1 SFC VIS 4 CIG 002V006 SLP201 T00500044
An error has occurred. This application may no longer respond until reloaded. Reload 🗙